Time;durP1;ratioP1;P1;durP2;ratioP2;P2;SDS_P1;SDS_P2;PMS_P1;PMS_P2;Temp;Humidity;BMP_temperature;BMP_pressure;BME280_temperature;BME280_humidity;BME280_pressure;Samples;Min_cycle;Max_cycle;Signal;HPM_P1;HPM_P2
2022/04/24 00:00:41;;;;;;;93.90;65.00;;;;;;;5.67;88.15;98026.20;105062;1273;61304;-72
2022/04/24 00:03:07;;;;;;;86.60;60.70;;;;;;;5.69;88.14;98029.81;105083;1274;61259;-71
2022/04/24 00:05:34;;;;;;;91.00;61.40;;;;;;;5.68;88.11;98028.98;105083;1270;61311;-72
2022/04/24 00:08:01;;;;;;;89.10;62.00;;;;;;;5.64;88.16;98029.37;105125;1270;69337;-72
2022/04/24 00:10:27;;;;;;;88.30;62.00;;;;;;;5.62;88.16;98021.43;105121;1270;72477;-71
2022/04/24 00:12:54;;;;;;;86.50;62.00;;;;;;;5.64;88.53;98015.51;104913;1271;61269;-72
2022/04/24 00:15:20;;;;;;;91.50;62.50;;;;;;;5.69;88.80;98008.48;105098;1270;61196;-71
2022/04/24 00:17:47;;;;;;;84.90;61.70;;;;;;;5.77;88.86;98008.52;105083;1271;61305;-71
2022/04/24 00:20:13;;;;;;;84.60;61.70;;;;;;;5.85;88.99;98008.16;105136;1271;61381;-71
2022/04/24 00:22:40;;;;;;;81.30;57.40;;;;;;;5.94;88.94;98004.27;105060;1273;61331;-74
2022/04/24 00:25:07;;;;;;;77.70;55.40;;;;;;;6.02;88.82;98002.70;105116;1270;61419;-71
2022/04/24 00:27:34;;;;;;;70.70;51.40;;;;;;;6.11;88.79;98003.91;105112;1271;61276;-71
2022/04/24 00:30:03;;;;;;;66.80;50.30;;;;;;;6.19;88.83;97998.95;105107;1271;76606;-72
2022/04/24 00:32:29;;;;;;;64.60;48.40;;;;;;;6.27;88.82;97991.73;105165;1270;69385;-71
2022/04/24 00:34:56;;;;;;;66.60;50.90;;;;;;;6.35;88.80;97989.66;105093;1270;72568;-71
2022/04/24 00:37:22;;;;;;;61.90;47.80;;;;;;;6.42;88.64;97986.38;105140;1270;61171;-72
2022/04/24 00:39:49;;;;;;;64.90;48.70;;;;;;;6.46;88.51;97984.48;105114;1270;61294;-71
2022/04/24 00:42:16;;;;;;;65.20;47.90;;;;;;;6.50;88.50;97981.06;105124;1270;61381;-71
2022/04/24 00:44:43;;;;;;;62.30;47.50;;;;;;;6.52;88.38;97978.77;105103;1270;71038;-72
2022/04/24 00:47:17;;;;;;;62.30;46.00;;;;;;;6.54;88.44;97977.05;105082;1270;61246;-72
2022/04/24 00:49:45;;;;;;;58.10;45.20;;;;;;;6.56;88.48;97976.74;105145;1270;61242;-72
2022/04/24 00:52:12;;;;;;;65.50;47.00;;;;;;;6.60;88.48;97978.61;105120;1270;61351;-71
2022/04/24 00:54:40;;;;;;;56.60;43.10;;;;;;;6.64;88.44;97977.50;105372;1271;76615;-72
2022/04/24 00:57:13;;;;;;;60.30;45.80;;;;;;;6.66;88.41;97976.48;105224;1269;70689;-71
2022/04/24 00:59:40;;;;;;;59.00;45.70;;;;;;;6.67;88.58;97979.75;105142;1271;73632;-71
2022/04/24 01:02:08;;;;;;;59.20;44.30;;;;;;;6.68;88.62;97977.58;105116;1270;62040;-71
2022/04/24 01:04:36;;;;;;;56.80;43.60;;;;;;;6.69;88.73;97975.38;105157;1270;61848;-73
2022/04/24 01:07:03;;;;;;;58.80;43.50;;;;;;;6.70;88.74;97969.27;105109;1270;74817;-72
2022/04/24 01:09:33;;;;;;;63.70;47.70;;;;;;;6.72;88.88;97965.27;105152;1270;70449;-72
2022/04/24 01:12:01;;;;;;;62.90;46.10;;;;;;;6.75;88.91;97957.82;105244;1270;73331;-73
2022/04/24 01:14:30;;;;;;;56.30;42.90;;;;;;;6.77;88.94;97958.58;105046;1271;61381;-71
2022/04/24 01:16:58;;;;;;;57.70;42.70;;;;;;;6.79;89.06;97957.21;105109;1270;61302;-71
2022/04/24 01:19:26;;;;;;;52.70;41.30;;;;;;;6.81;88.96;97960.41;105178;1270;75108;-70
2022/04/24 01:21:53;;;;;;;52.80;42.10;;;;;;;6.82;89.00;97956.85;105220;1270;68684;-70
2022/04/24 01:24:25;;;;;;;55.90;42.20;;;;;;;6.83;89.14;97955.36;105072;1270;74535;-73
2022/04/24 01:26:52;;;;;;;54.70;41.50;;;;;;;6.84;89.10;97950.69;105095;1270;61299;-72
2022/04/24 01:29:23;;;;;;;51.70;40.40;;;;;;;6.85;89.14;97944.45;105367;1270;62367;-72
2022/04/24 01:31:50;;;;;;;56.00;43.00;;;;;;;6.86;89.29;97940.87;105115;1270;76535;-72
2022/04/24 01:34:18;;;;;;;54.80;41.10;;;;;;;6.86;89.17;97942.27;105106;1270;69371;-72
2022/04/24 01:36:45;;;;;;;60.10;43.00;;;;;;;6.86;89.31;97942.48;105013;1271;73288;-71
2022/04/24 01:39:14;;;;;;;53.00;40.30;;;;;;;6.84;89.23;97935.15;105118;1270;61333;-71
2022/04/24 01:41:40;;;;;;;50.60;39.90;;;;;;;6.83;89.30;97930.64;105219;1270;61637;-72
2022/04/24 01:44:07;;;;;;;48.60;39.00;;;;;;;6.82;89.33;97934.08;105075;1270;75300;-71
2022/04/24 01:46:33;;;;;;;45.80;37.70;;;;;;;6.81;89.25;97938.67;105053;1270;70425;-71
2022/04/24 01:49:00;;;;;;;49.50;37.20;;;;;;;6.81;89.30;97937.82;104909;1271;61152;-72
2022/04/24 01:51:26;;;;;;;47.00;37.90;;;;;;;6.82;89.24;97937.96;105082;1270;61163;-71
2022/04/24 01:53:53;;;;;;;44.90;37.30;;;;;;;6.83;89.22;97935.58;105116;1270;61392;-71
2022/04/24 01:56:19;;;;;;;46.60;38.30;;;;;;;6.85;89.34;97934.95;105112;1270;61383;-71
2022/04/24 01:58:46;;;;;;;45.40;36.20;;;;;;;6.85;89.41;97931.73;105023;1271;61293;-71
2022/04/24 02:01:12;;;;;;;46.20;38.20;;;;;;;6.86;89.32;97925.64;105066;1270;61247;-72
2022/04/24 02:03:39;;;;;;;46.00;36.70;;;;;;;6.87;89.50;97926.98;105102;1270;61311;-70
2022/04/24 02:06:06;;;;;;;50.40;39.60;;;;;;;6.87;89.55;97919.02;105097;1270;61163;-71
2022/04/24 02:08:36;;;;;;;45.80;38.70;;;;;;;6.87;89.46;97915.70;105151;1270;74340;-72
2022/04/24 02:11:05;;;;;;;46.10;37.20;;;;;;;6.87;89.53;97907.22;105120;1270;68920;-72
2022/04/24 02:13:32;;;;;;;48.10;37.70;;;;;;;6.86;89.71;97901.64;105362;1270;74671;-71
2022/04/24 02:15:58;;;;;;;52.40;40.60;;;;;;;6.86;89.74;97901.46;105049;1270;61415;-71
2022/04/24 02:18:25;;;;;;;43.90;36.80;;;;;;;6.86;89.86;97897.10;104992;1271;61376;-71
2022/04/24 02:20:51;;;;;;;43.90;37.60;;;;;;;6.86;89.85;97897.05;105095;1268;61353;-73
2022/04/24 02:23:18;;;;;;;44.50;36.50;;;;;;;6.87;89.93;97898.77;105096;1270;61177;-72
2022/04/24 02:25:44;;;;;;;48.40;40.30;;;;;;;6.89;89.96;97898.84;105129;1270;61224;-73
2022/04/24 02:28:11;;;;;;;43.40;35.60;;;;;;;6.89;90.04;97891.40;105098;1270;61303;-72
2022/04/24 02:30:38;;;;;;;56.60;43.80;;;;;;;6.90;90.08;97892.38;105079;1270;61246;-71
2022/04/24 02:33:04;;;;;;;61.20;46.80;;;;;;;6.91;89.98;97883.86;104892;1274;75622;-72
2022/04/24 02:35:31;;;;;;;48.70;39.20;;;;;;;6.92;90.02;97888.52;105124;1270;68510;-72
2022/04/24 02:37:58;;;;;;;119.90;89.20;;;;;;;6.92;90.18;97883.23;105116;1270;74768;-72
2022/04/24 02:40:27;;;;;;;59.80;50.20;;;;;;;6.91;90.20;97880.84;105113;1270;61239;-72
2022/04/24 02:42:54;;;;;;;48.10;40.80;;;;;;;6.92;90.20;97882.34;105082;1270;61227;-71
2022/04/24 02:45:20;;;;;;;49.30;39.50;;;;;;;6.92;90.31;97876.67;105117;1270;75274;-72
2022/04/24 02:47:47;;;;;;;46.20;39.30;;;;;;;6.93;90.33;97881.35;104921;1270;67399;-73
2022/04/24 02:50:15;;;;;;;46.50;40.80;;;;;;;6.93;90.49;97873.80;105142;1270;73388;-71
2022/04/24 02:52:51;;;;;;;47.30;39.10;;;;;;;6.93;90.52;97872.36;105128;1270;61245;-72
2022/04/24 02:55:18;;;;;;;48.10;38.60;;;;;;;6.95;90.65;97873.15;105141;1270;62129;-71
2022/04/24 02:57:46;;;;;;;45.50;38.40;;;;;;;6.96;90.56;97875.35;104934;1271;75419;-71
2022/04/24 03:00:19;;;;;;;47.00;38.20;;;;;;;6.98;90.57;97875.07;105120;1270;70645;-72
2022/04/24 03:02:47;;;;;;;43.50;36.10;;;;;;;6.99;90.64;97870.18;105215;1270;73892;-72
2022/04/24 03:05:16;;;;;;;45.00;37.40;;;;;;;6.99;90.73;97867.19;105088;1270;61250;-71
2022/04/24 03:07:43;;;;;;;44.30;37.90;;;;;;;7.01;90.68;97867.44;105176;1270;61269;-72
2022/04/24 03:10:11;;;;;;;39.60;35.40;;;;;;;7.01;90.67;97866.52;104971;1270;76678;-71
2022/04/24 03:12:40;;;;;;;41.40;36.70;;;;;;;7.02;90.59;97871.71;105137;1270;68906;-71
2022/04/24 03:15:08;;;;;;;44.20;37.30;;;;;;;7.03;90.65;97870.05;104927;1270;74551;-72
2022/04/24 03:17:35;;;;;;;43.40;36.50;;;;;;;7.05;90.71;97871.38;105022;1271;61237;-71
2022/04/24 03:20:04;;;;;;;43.40;35.50;;;;;;;7.06;90.70;97870.95;105149;1270;61861;-71
2022/04/24 03:22:33;;;;;;;43.70;35.80;;;;;;;7.07;90.78;97869.95;105130;1270;75353;-71
2022/04/24 03:25:09;;;;;;;42.30;35.70;;;;;;;7.09;90.96;97867.88;104973;1270;68666;-72
2022/04/24 03:27:36;;;;;;;41.10;35.10;;;;;;;7.11;90.83;97867.04;105152;1270;73128;-72
2022/04/24 03:30:05;;;;;;;38.50;33.50;;;;;;;7.13;90.82;97869.76;105026;1270;61366;-71
2022/04/24 03:32:32;;;;;;;37.60;32.80;;;;;;;7.15;90.69;97873.50;105353;1271;61773;-71
2022/04/24 03:35:00;;;;;;;38.90;33.70;;;;;;;7.17;90.62;97871.80;105153;1270;73749;-71
2022/04/24 03:37:27;;;;;;;40.10;32.70;;;;;;;7.19;90.55;97874.63;105054;1270;69219;-71
2022/04/24 03:39:53;;;;;;;39.30;32.00;;;;;;;7.19;90.53;97878.13;105096;1270;75219;-71
2022/04/24 03:42:20;;;;;;;39.70;32.90;;;;;;;7.21;90.54;97884.01;105110;1270;61287;-72
2022/04/24 03:44:47;;;;;;;39.10;32.50;;;;;;;7.22;90.64;97886.42;104961;1270;61948;-72
2022/04/24 03:47:14;;;;;;;40.00;33.10;;;;;;;7.23;90.71;97883.01;105079;1270;76067;-71
2022/04/24 03:49:41;;;;;;;37.90;32.20;;;;;;;7.24;90.78;97883.46;105098;1270;70514;-74
2022/04/24 03:52:08;;;;;;;37.70;30.70;;;;;;;7.25;90.79;97881.05;105082;1270;61388;-73
2022/04/24 03:54:35;;;;;;;36.30;31.70;;;;;;;7.28;91.23;97872.95;105117;1270;61352;-72
2022/04/24 03:57:01;;;;;;;38.00;31.60;;;;;;;7.30;91.27;97878.13;104990;1271;61284;-71
2022/04/24 03:59:29;;;;;;;37.50;30.50;;;;;;;7.31;91.35;97872.23;105094;1270;61263;-72
2022/04/24 04:01:56;;;;;;;36.10;30.70;;;;;;;7.31;91.66;97876.23;105117;1270;69380;-72
2022/04/24 04:04:22;;;;;;;34.30;30.60;;;;;;;7.32;91.74;97878.43;105011;1270;74428;-72
2022/04/24 04:06:49;;;;;;;37.40;31.30;;;;;;;7.34;92.12;97878.87;105096;1270;61280;-72
2022/04/24 04:09:16;;;;;;;36.10;31.00;;;;;;;7.34;92.41;97880.79;105136;1270;61276;-71
2022/04/24 04:11:42;;;;;;;37.90;30.90;;;;;;;7.34;92.70;97878.99;105021;1272;74127;-73
2022/04/24 04:14:09;;;;;;;34.20;30.20;;;;;;;7.34;93.16;97880.96;105146;1270;69401;-72
2022/04/24 04:16:35;;;;;;;33.00;28.40;;;;;;;7.34;93.56;97883.61;105095;1270;72857;-72
2022/04/24 04:19:02;;;;;;;32.30;28.80;;;;;;;7.34;93.93;97882.92;104914;1274;61445;-71
2022/04/24 04:21:29;;;;;;;36.00;31.20;;;;;;;7.35;94.37;97883.95;105096;1270;61905;-72
2022/04/24 04:23:55;;;;;;;37.50;31.80;;;;;;;7.35;94.77;97884.95;105143;1270;75137;-71
2022/04/24 04:26:22;;;;;;;33.10;28.90;;;;;;;7.35;95.32;97882.88;105110;1270;70322;-70
2022/04/24 04:28:50;;;;;;;39.60;31.50;;;;;;;7.35;95.29;97882.83;105007;1270;72307;-72
2022/04/24 04:31:20;;;;;;;33.70;29.90;;;;;;;7.35;95.63;97877.87;105085;1270;61338;-73
2022/04/24 04:33:46;;;;;;;34.40;30.70;;;;;;;7.36;96.07;97877.84;105111;1270;61283;-72
2022/04/24 04:36:13;;;;;;;35.00;31.30;;;;;;;7.35;96.01;97880.56;105121;1270;61301;-71
2022/04/24 04:38:39;;;;;;;37.10;33.20;;;;;;;7.36;96.35;97879.61;105098;1270;61277;-70
2022/04/24 04:41:06;;;;;;;39.80;35.30;;;;;;;7.37;96.62;97879.02;104987;1273;74393;-72
2022/04/24 04:43:32;;;;;;;37.80;33.60;;;;;;;7.39;96.91;97878.84;105085;1270;61253;-72
2022/04/24 04:45:59;;;;;;;38.30;34.10;;;;;;;7.40;97.14;97876.67;105086;1270;61276;-74
2022/04/24 04:48:26;;;;;;;39.80;35.20;;;;;;;7.39;97.29;97872.16;105090;1270;74846;-73
2022/04/24 04:50:53;;;;;;;39.80;35.50;;;;;;;7.39;97.57;97872.09;105107;1270;70377;-72
2022/04/24 04:53:20;;;;;;;39.10;34.90;;;;;;;7.40;97.97;97878.23;105112;1270;73449;-72
2022/04/24 04:55:47;;;;;;;41.60;37.00;;;;;;;7.40;98.61;97873.80;105322;1269;61284;-71
2022/04/24 04:58:14;;;;;;;40.20;35.80;;;;;;;7.41;99.05;97871.42;105122;1270;61262;-72
2022/04/24 05:00:41;;;;;;;43.70;37.60;;;;;;;7.40;99.77;97871.50;104994;1271;75490;-71
2022/04/24 05:03:07;;;;;;;42.40;37.80;;;;;;;7.35;100.00;97873.43;105124;1270;69717;-70
2022/04/24 05:05:34;;;;;;;46.30;37.50;;;;;;;7.32;100.00;97875.34;105114;1271;72430;-71
2022/04/24 05:08:01;;;;;;;41.50;37.00;;;;;;;7.28;100.00;97875.77;105068;1271;61357;-72
2022/04/24 05:10:28;;;;;;;42.70;38.00;;;;;;;7.27;100.00;97872.14;105099;1270;61304;-71
2022/04/24 05:12:54;;;;;;;45.80;38.20;;;;;;;7.24;100.00;97867.88;105308;1270;75088;-71
2022/04/24 05:15:21;;;;;;;42.10;36.10;;;;;;;7.23;100.00;97870.80;105108;1270;61377;-72
2022/04/24 05:17:48;;;;;;;42.70;37.50;;;;;;;7.19;100.00;97867.58;105147;1270;72554;-72
2022/04/24 05:20:15;;;;;;;43.60;38.20;;;;;;;7.13;100.00;97865.32;105128;1271;61382;-70
2022/04/24 05:22:41;;;;;;;45.70;40.40;;;;;;;7.07;100.00;97865.56;105149;1270;61360;-72
2022/04/24 05:25:09;;;;;;;46.70;40.90;;;;;;;7.02;100.00;97872.65;105175;1270;76124;-72
2022/04/24 05:27:37;;;;;;;45.40;40.60;;;;;;;6.97;100.00;97871.92;105290;1270;69259;-71
2022/04/24 05:30:07;;;;;;;48.40;42.70;;;;;;;6.92;100.00;97878.96;105193;1271;74461;-72
2022/04/24 05:32:49;;;;;;;47.20;42.10;;;;;;;6.89;100.00;97890.12;105481;1270;61300;-72
2022/04/24 05:35:16;;;;;;;51.30;44.30;;;;;;;6.89;100.00;97884.11;105120;1270;61265;-71
2022/04/24 05:37:47;;;;;;;53.30;44.50;;;;;;;6.89;100.00;97880.05;105128;1270;76637;-71
2022/04/24 05:40:15;;;;;;;50.90;43.30;;;;;;;6.88;100.00;97881.58;105139;1270;68543;-71
2022/04/24 05:42:46;;;;;;;50.50;44.20;;;;;;;6.88;100.00;97879.50;105070;1270;74709;-72
2022/04/24 05:45:14;;;;;;;46.80;41.80;;;;;;;6.87;100.00;97880.56;104995;1271;62829;-71
2022/04/24 05:47:44;;;;;;;51.30;42.60;;;;;;;6.86;100.00;97880.47;105105;1270;61288;-71
2022/04/24 05:50:11;;;;;;;54.10;45.70;;;;;;;6.85;100.00;97873.48;104910;1271;74386;-72
2022/04/24 05:52:39;;;;;;;54.80;46.30;;;;;;;6.85;100.00;97867.85;105139;1271;70428;-71
2022/04/24 05:55:07;;;;;;;52.90;43.80;;;;;;;6.85;100.00;97865.54;105199;1270;72473;-71
2022/04/24 05:57:35;;;;;;;52.80;44.80;;;;;;;6.86;100.00;97857.86;105127;1270;61380;-72
2022/04/24 06:00:06;;;;;;;50.60;44.10;;;;;;;6.90;100.00;97858.34;105181;1270;61409;-72
2022/04/24 06:02:33;;;;;;;53.00;44.00;;;;;;;6.93;100.00;97852.22;105166;1271;75109;-71
2022/04/24 06:04:59;;;;;;;48.10;42.10;;;;;;;6.97;100.00;97858.36;105210;1270;69188;-73
2022/04/24 06:07:26;;;;;;;48.20;43.00;;;;;;;7.00;100.00;97854.38;105056;1270;61338;-71
2022/04/24 06:09:53;;;;;;;49.10;40.90;;;;;;;7.05;100.00;97848.77;105170;1270;61390;-71
2022/04/24 06:12:19;;;;;;;47.20;40.70;;;;;;;7.11;100.00;97848.15;105070;1271;61373;-72
2022/04/24 06:14:46;;;;;;;48.60;42.50;;;;;;;7.18;100.00;97845.88;105184;1270;74971;-72
2022/04/24 06:17:12;;;;;;;46.90;41.70;;;;;;;7.23;100.00;97847.85;105187;1270;61259;-73
2022/04/24 06:19:39;;;;;;;48.20;42.50;;;;;;;7.29;100.00;97837.66;105162;1270;61292;-72
2022/04/24 06:22:05;;;;;;;44.30;39.40;;;;;;;7.33;100.00;97838.30;105151;1270;61287;-71
2022/04/24 06:24:32;;;;;;;43.70;38.70;;;;;;;7.36;100.00;97839.84;105155;1270;61176;-71
2022/04/24 06:26:58;;;;;;;41.90;37.40;;;;;;;7.40;100.00;97841.30;105193;1270;74241;-73
2022/04/24 06:29:25;;;;;;;42.60;38.00;;;;;;;7.47;100.00;97837.97;104949;1271;61426;-72
2022/04/24 06:31:52;;;;;;;44.10;39.30;;;;;;;7.55;100.00;97834.61;105162;1270;74052;-74
2022/04/24 06:34:19;;;;;;;43.90;39.10;;;;;;;7.60;100.00;97836.85;105147;1271;61301;-71
2022/04/24 06:36:46;;;;;;;43.30;38.80;;;;;;;7.65;100.00;97836.32;105162;1270;61262;-71
2022/04/24 06:39:12;;;;;;;43.30;38.60;;;;;;;7.71;100.00;97833.95;105125;1272;74368;-73
2022/04/24 06:41:38;;;;;;;44.60;37.70;;;;;;;7.76;100.00;97834.27;105069;1271;61721;-72
2022/04/24 06:44:05;;;;;;;42.40;37.80;;;;;;;7.76;100.00;97833.55;104899;1273;61475;-70
2022/04/24 06:46:31;;;;;;;42.40;37.40;;;;;;;7.73;100.00;97834.88;104914;1273;61316;-73
2022/04/24 06:48:58;;;;;;;42.80;38.40;;;;;;;7.69;100.00;97833.73;104643;1274;61434;-74
2022/04/24 06:51:24;;;;;;;40.70;36.50;;;;;;;7.71;100.00;97831.41;104976;1273;61393;-72
2022/04/24 06:53:51;;;;;;;38.40;34.30;;;;;;;7.76;100.00;97833.42;104773;1274;61333;-71
2022/04/24 06:56:17;;;;;;;38.40;34.20;;;;;;;7.79;100.00;97823.27;104970;1273;61387;-71
2022/04/24 06:58:44;;;;;;;39.10;34.90;;;;;;;7.83;100.00;97825.93;104937;1277;61388;-72
2022/04/24 07:01:10;;;;;;;37.70;33.80;;;;;;;7.84;100.00;97821.98;104958;1273;61391;-71
2022/04/24 07:03:37;;;;;;;37.10;33.10;;;;;;;7.84;100.00;97818.98;104949;1273;61390;-72
2022/04/24 07:06:04;;;;;;;38.80;34.60;;;;;;;7.85;100.00;97818.70;104930;1273;61319;-71
2022/04/24 07:08:30;;;;;;;41.00;33.60;;;;;;;7.93;100.00;97818.48;104960;1273;73481;-74
2022/04/24 07:10:57;;;;;;;39.70;35.50;;;;;;;8.01;100.00;97814.00;104963;1273;61292;-72
2022/04/24 07:13:24;;;;;;;40.00;35.90;;;;;;;8.08;100.00;97813.67;104949;1273;62222;-70
2022/04/24 07:15:52;;;;;;;41.50;37.00;;;;;;;8.14;100.00;97813.20;105104;1271;76204;-73
2022/04/24 07:18:18;;;;;;;39.80;35.40;;;;;;;8.23;100.00;97812.14;105156;1270;69601;-73
2022/04/24 07:20:45;;;;;;;39.40;35.10;;;;;;;8.29;100.00;97810.09;105198;1270;73337;-73
2022/04/24 07:23:11;;;;;;;38.10;34.00;;;;;;;8.30;100.00;97802.58;105063;1273;61652;-72
2022/04/24 07:25:46;;;;;;;38.90;34.70;;;;;;;8.30;100.00;97799.73;105186;1271;61271;-72
2022/04/24 07:28:14;;;;;;;37.60;33.50;;;;;;;8.32;100.00;97791.25;105177;1271;75303;-72
2022/04/24 07:30:41;;;;;;;43.20;38.50;;;;;;;8.29;100.00;97787.63;105192;1270;69000;-71
2022/04/24 07:33:08;;;;;;;43.30;38.20;;;;;;;8.28;100.00;97788.73;105180;1270;72126;-73
2022/04/24 07:35:37;;;;;;;37.50;33.60;;;;;;;8.30;100.00;97790.75;105139;1270;61322;-73
2022/04/24 07:38:04;;;;;;;41.30;37.00;;;;;;;8.32;100.00;97793.95;105158;1270;61272;-72
2022/04/24 07:40:32;;;;;;;40.40;36.20;;;;;;;8.31;100.00;97793.11;105205;1270;75401;-72
2022/04/24 07:43:01;;;;;;;38.70;34.60;;;;;;;8.31;100.00;97793.30;105189;1270;70850;-72
2022/04/24 07:45:31;;;;;;;39.10;34.60;;;;;;;8.31;100.00;97794.67;105179;1270;73224;-71
2022/04/24 07:47:59;;;;;;;44.00;37.70;;;;;;;8.30;100.00;97795.31;104947;1271;61445;-71
2022/04/24 07:50:31;;;;;;;40.70;36.30;;;;;;;8.31;100.00;97794.54;105006;1271;61500;-72
2022/04/24 07:52:57;;;;;;;43.20;38.50;;;;;;;8.31;100.00;97792.02;105180;1271;74407;-71
2022/04/24 07:55:24;;;;;;;41.80;37.40;;;;;;;8.31;100.00;97792.99;105039;1274;61267;-73
2022/04/24 07:57:53;;;;;;;43.40;38.30;;;;;;;8.29;100.00;97795.75;105126;1270;74302;-71
2022/04/24 08:00:25;;;;;;;40.40;35.10;;;;;;;8.29;100.00;97796.33;105155;1271;61336;-71
2022/04/24 08:02:57;;;;;;;40.70;36.30;;;;;;;8.27;100.00;97796.26;105227;1270;61871;-72
2022/04/24 08:05:26;;;;;;;37.20;33.10;;;;;;;8.26;100.00;97796.15;105177;1270;75207;-72
2022/04/24 08:07:54;;;;;;;38.10;33.70;;;;;;;8.26;100.00;97797.02;105117;1271;70123;-73
2022/04/24 08:10:22;;;;;;;41.00;36.70;;;;;;;8.28;100.00;97793.92;105180;1270;73385;-73
2022/04/24 08:12:49;;;;;;;41.30;35.60;;;;;;;8.31;100.00;97784.81;105109;1270;61329;-73
2022/04/24 08:15:17;;;;;;;39.80;35.10;;;;;;;8.33;100.00;97783.41;104946;1271;61890;-73
2022/04/24 08:17:44;;;;;;;43.90;38.00;;;;;;;8.33;100.00;97777.00;105162;1270;75110;-73
2022/04/24 08:20:13;;;;;;;40.20;35.80;;;;;;;8.34;100.00;97779.45;105139;1270;70188;-72
2022/04/24 08:22:51;;;;;;;41.30;36.20;;;;;;;8.32;100.00;97777.11;105125;1270;73197;-72
2022/04/24 08:25:20;;;;;;;44.70;39.30;;;;;;;8.31;100.00;97788.51;105137;1271;61387;-72
2022/04/24 08:27:48;;;;;;;43.40;38.50;;;;;;;8.30;100.00;97784.73;105221;1271;61289;-73
2022/04/24 08:30:17;;;;;;;44.40;38.40;;;;;;;8.25;100.00;97784.90;105141;1270;76093;-72
2022/04/24 08:32:45;;;;;;;42.20;37.40;;;;;;;8.22;100.00;97788.03;105074;1271;69212;-73
2022/04/24 08:35:14;;;;;;;44.00;38.50;;;;;;;8.19;100.00;97785.61;105008;1271;73412;-73
2022/04/24 08:37:42;;;;;;;44.60;39.80;;;;;;;8.19;100.00;97786.31;105117;1271;61377;-72
2022/04/24 08:40:13;;;;;;;42.40;37.80;;;;;;;8.21;100.00;97776.40;105185;1271;61801;-73
2022/04/24 08:42:40;;;;;;;;;;;;;;;8.25;100.00;97771.48;105343;1270;75293;-72
2022/04/24 08:45:15;;;;;;;39.80;34.70;;;;;;;8.28;100.00;97765.40;105429;1271;70328;-72
2022/04/24 08:47:44;;;;;;;40.80;36.50;;;;;;;8.32;100.00;97761.38;105184;1271;74434;-73
2022/04/24 08:50:12;;;;;;;37.20;33.20;;;;;;;8.36;100.00;97760.70;105338;1271;61378;-72
2022/04/24 08:52:46;;;;;;;38.60;34.60;;;;;;;8.40;100.00;97758.52;105194;1270;61285;-71
2022/04/24 08:55:12;;;;;;;40.20;35.40;;;;;;;8.42;100.00;97760.27;105194;1271;76755;-73
2022/04/24 08:57:39;;;;;;;41.30;36.80;;;;;;;8.45;100.00;97755.13;105180;1271;69108;-72
2022/04/24 09:00:08;;;;;;;41.50;35.90;;;;;;;8.47;100.00;97754.59;105153;1271;74425;-72
2022/04/24 09:02:35;;;;;;;37.50;33.40;;;;;;;8.47;100.00;97750.37;105222;1271;61422;-72
2022/04/24 09:05:06;;;;;;;40.60;36.10;;;;;;;8.46;100.00;97747.94;105233;1271;61275;-72
2022/04/24 09:07:34;;;;;;;37.30;33.30;;;;;;;8.46;100.00;97748.26;105194;1271;75546;-72
2022/04/24 09:10:09;;;;;;;40.00;35.60;;;;;;;8.46;100.00;97749.87;105317;1271;69376;-70
2022/04/24 09:12:36;;;;;;;41.40;36.90;;;;;;;8.47;100.00;97744.48;105261;1271;74414;-73
2022/04/24 09:15:02;;;;;;;42.60;38.00;;;;;;;8.51;100.00;97741.01;105236;1271;61391;-73
2022/04/24 09:17:34;;;;;;;42.30;36.60;;;;;;;8.56;100.00;97741.44;105254;1270;61186;-78
2022/04/24 09:20:02;;;;;;;40.70;36.30;;;;;;;8.64;100.00;97740.19;105535;1271;76079;-81
2022/04/24 09:22:37;;;;;;;43.50;38.70;;;;;;;8.69;100.00;97742.23;105434;1271;69757;-79
2022/04/24 09:25:05;;;;;;;43.90;38.20;;;;;;;8.74;100.00;97742.66;105394;1273;74379;-78
2022/04/24 09:27:33;;;;;;;45.80;40.90;;;;;;;8.81;100.00;97736.52;105226;1273;61292;-77
2022/04/24 09:30:25;;;;;;;45.50;40.40;;;;;;;8.85;100.00;97733.91;105326;1271;61322;-77
2022/04/24 09:32:54;;;;;;;48.80;41.80;;;;;;;8.89;100.00;97734.79;105670;1271;76522;-79
2022/04/24 09:35:25;;;;;;;44.90;40.10;;;;;;;8.94;100.00;97733.16;105484;1271;70386;-77
2022/04/24 09:37:52;;;;;;;48.20;42.80;;;;;;;9.03;100.00;97727.46;105263;1270;73178;-76
2022/04/24 09:40:19;;;;;;;48.10;42.70;;;;;;;9.12;100.00;97726.36;105316;1271;61276;-78
2022/04/24 09:42:56;;;;;;;54.20;47.20;;;;;;;9.22;100.00;97721.13;105431;1271;61227;-78
2022/04/24 09:45:24;;;;;;;49.60;44.10;;;;;;;9.38;100.00;97717.69;105303;1271;75254;-77
2022/04/24 09:47:59;;;;;;;48.70;42.70;;;;;;;9.50;100.00;97722.72;105346;1271;69163;-76
2022/04/24 09:50:29;;;;;;;46.70;41.20;;;;;;;9.54;100.00;97720.82;105311;1271;72643;-77
2022/04/24 09:52:57;;;;;;;45.00;40.30;;;;;;;9.58;100.00;97718.15;105307;1271;61301;-77
2022/04/24 09:55:25;;;;;;;48.70;40.30;;;;;;;9.64;100.00;97716.20;105430;1271;62612;-86
2022/04/24 09:57:54;;;;;;;46.60;40.30;;;;;;;9.77;100.00;97709.88;105605;1271;74581;-73
2022/04/24 10:00:21;;;;;;;44.40;39.70;;;;;;;9.89;100.00;97709.69;104907;1274;69571;-80
2022/04/24 10:02:50;;;;;;;41.10;36.80;;;;;;;10.10;100.00;97702.91;105073;1272;72675;-76
2022/04/24 10:05:17;;;;;;;42.10;37.80;;;;;;;10.44;100.00;97695.83;105398;1270;61333;-74
2022/04/24 10:07:50;;;;;;;39.50;35.10;;;;;;;10.78;100.00;97696.75;105632;1271;61367;-74
2022/04/24 10:10:16;;;;;;;42.10;37.60;;;;;;;11.12;100.00;97695.64;105364;1271;75185;-78
2022/04/24 10:12:48;;;;;;;40.90;36.60;;;;;;;11.45;100.00;97690.89;105306;1271;70181;-74
2022/04/24 10:15:17;;;;;;;39.20;35.20;;;;;;;11.83;100.00;97681.33;105337;1271;74294;-74
2022/04/24 10:18:22;;;;;;;37.00;33.40;;;;;;;12.16;100.00;97681.64;105299;1271;61362;-74
2022/04/24 10:21:03;;;;;;;33.60;30.10;;;;;;;12.39;100.00;97683.72;105249;1271;62096;-74
2022/04/24 10:23:33;;;;;;;34.10;30.60;;;;;;;12.32;100.00;97682.26;105307;1271;74744;-73
2022/04/24 10:26:00;;;;;;;;;;;;;;;12.23;100.00;97681.19;105429;1271;69194;-74
2022/04/24 10:28:36;;;;;;;32.20;28.80;;;;;;;12.15;100.00;97672.64;105331;1271;74251;-74
2022/04/24 10:31:05;;;;;;;33.00;29.70;;;;;;;12.25;100.00;97664.73;105086;1271;61336;-76
2022/04/24 10:33:36;;;;;;;33.70;30.30;;;;;;;12.49;100.00;97656.04;105322;1271;61765;-75
2022/04/24 10:36:11;;;;;;;32.70;29.50;;;;;;;12.70;100.00;97652.61;105548;1271;75161;-74
2022/04/24 10:38:50;;;;;;;32.30;29.10;;;;;;;12.83;100.00;97647.05;105353;1271;70053;-75
2022/04/24 10:41:25;;;;;;;29.70;26.70;;;;;;;12.90;100.00;97640.48;105330;1271;73381;-73
2022/04/24 10:44:08;;;;;;;29.40;26.50;;;;;;;13.11;100.00;97626.66;105269;1271;61269;-73
2022/04/24 10:46:40;;;;;;;30.50;27.40;;;;;;;13.40;100.00;97625.21;105562;1274;61353;-72
2022/04/24 10:49:14;;;;;;;30.90;27.90;;;;;;;13.80;100.00;97611.87;105314;1269;76336;-74
2022/04/24 10:51:43;;;;;;;29.30;26.50;;;;;;;13.97;100.00;97615.80;105301;1271;69174;-74
2022/04/24 10:54:15;;;;;;;30.70;27.70;;;;;;;14.08;100.00;97617.77;105347;1271;74387;-73
2022/04/24 10:56:49;;;;;;;28.30;25.70;;;;;;;14.14;100.00;97611.10;105338;1271;61285;-74
2022/04/24 10:59:18;;;;;;;25.80;23.40;;;;;;;14.15;100.00;97601.70;105363;1271;61297;-73
2022/04/24 11:01:51;;;;;;;24.70;22.30;;;;;;;14.07;100.00;97604.14;105128;1271;76216;-74
2022/04/24 11:04:19;;;;;;;26.60;24.10;;;;;;;13.87;100.00;97603.45;105289;1271;68758;-75
2022/04/24 11:07:02;;;;;;;25.50;23.10;;;;;;;13.84;100.00;97597.92;105019;1274;73444;-73
2022/04/24 11:09:31;;;;;;;22.90;20.80;;;;;;;13.84;100.00;97603.97;105239;1274;61390;-74
2022/04/24 11:11:59;;;;;;;27.30;24.60;;;;;;;13.95;100.00;97603.70;105414;1271;61317;-75
2022/04/24 11:14:28;;;;;;;25.80;23.20;;;;;;;14.05;100.00;97601.98;105419;1271;75290;-74
2022/04/24 11:17:05;;;;;;;25.60;23.10;;;;;;;14.16;100.00;97594.48;105473;1271;69358;-74